createdAt,value
2023-01-17T00:01:22.547Z,98065.78
2023-01-17T00:03:49.215Z,98070.94
2023-01-17T00:06:15.891Z,98080.38
2023-01-17T00:08:42.558Z,98068.19
2023-01-17T00:11:09.223Z,98063.16
2023-01-17T00:13:35.824Z,98062.59
2023-01-17T00:16:02.645Z,98051.47
2023-01-17T00:18:30.716Z,98058.47
2023-01-17T00:20:57.367Z,98046.19
2023-01-17T00:23:25.696Z,98056.38
2023-01-17T00:25:52.996Z,98042.84
2023-01-17T00:28:20.008Z,98052.19
2023-01-17T00:30:47.022Z,98062.09
2023-01-17T00:33:13.929Z,98056.19
2023-01-17T00:35:48.157Z,98057.84
2023-01-17T00:38:16.367Z,98078.41
2023-01-17T00:40:44.946Z,98063.84
2023-01-17T00:43:12.957Z,98073.53
2023-01-17T00:45:39.603Z,98079.09
2023-01-17T00:48:06.454Z,98092.19
2023-01-17T00:50:33.335Z,98091.50
2023-01-17T00:53:05.048Z,98091.72
2023-01-17T00:55:36.381Z,98101.81
2023-01-17T00:58:12.572Z,98083.81
2023-01-17T01:00:39.298Z,98090.44
2023-01-17T01:03:09.021Z,98104.63
2023-01-17T01:05:36.973Z,98128.94
2023-01-17T01:08:16.119Z,98113.81
2023-01-17T01:10:42.801Z,98105.50
2023-01-17T01:13:09.499Z,98109.97
2023-01-17T01:15:36.142Z,98104.16
2023-01-17T01:18:05.867Z,98102.66
2023-01-17T01:20:47.218Z,98105.88
2023-01-17T01:23:15.250Z,98094.75
2023-01-17T01:25:41.899Z,98109.31
2023-01-17T01:28:19.593Z,98103.97
2023-01-17T01:30:49.150Z,98113.63
2023-01-17T01:33:16.272Z,98125.50
2023-01-17T01:35:45.344Z,98123.03
2023-01-17T01:38:11.977Z,98122.25
2023-01-17T01:40:48.454Z,98117.88
2023-01-17T01:43:41.501Z,98095.81
2023-01-17T01:46:11.406Z,98086.28
2023-01-17T01:48:42.397Z,98118.53
2023-01-17T01:51:15.093Z,98110.50
2023-01-17T01:53:45.446Z,98107.41
2023-01-17T01:56:15.203Z,98115.66
2023-01-17T01:58:53.576Z,98095.84
2023-01-17T02:01:20.548Z,98097.75
2023-01-17T02:03:48.332Z,98082.66
2023-01-17T02:06:28.454Z,98087.69
2023-01-17T02:08:57.310Z,98085.44
2023-01-17T02:11:26.328Z,98097.56
2023-01-17T02:13:53.018Z,98106.88
2023-01-17T02:16:36.883Z,98106.34
2023-01-17T02:19:30.095Z,98113.63
2023-01-17T02:22:05.258Z,98111.88
2023-01-17T02:24:54.734Z,98098.84
2023-01-17T02:27:27.114Z,98096.38
2023-01-17T02:30:27.565Z,98094.19
2023-01-17T02:33:03.453Z,98082.31
2023-01-17T02:35:36.249Z,98103.06
2023-01-17T02:38:19.574Z,98102.84
2023-01-17T02:40:52.610Z,98072.56
2023-01-17T02:43:22.480Z,98097.44
2023-01-17T02:45:50.847Z,98094.75
2023-01-17T02:48:22.589Z,98089.75
2023-01-17T02:51:11.712Z,98078.50
2023-01-17T02:53:54.127Z,98087.81
2023-01-17T02:56:34.363Z,98084.06
2023-01-17T02:59:14.578Z,98086.78
2023-01-17T03:01:57.742Z,98086.34
2023-01-17T03:04:30.132Z,98083.03
2023-01-17T03:06:59.134Z,98074.31
2023-01-17T03:09:26.384Z,98082.28
2023-01-17T03:11:53.652Z,98080.34
2023-01-17T03:14:20.288Z,98081.44
2023-01-17T03:16:48.398Z,98083.72
2023-01-17T03:19:15.182Z,98101.94
2023-01-17T03:21:41.799Z,98095.69
2023-01-17T03:24:08.736Z,98098.88
2023-01-17T03:26:35.386Z,98103.69
2023-01-17T03:29:02.339Z,98118.22
2023-01-17T03:31:29.004Z,98108.19
2023-01-17T03:33:59.283Z,98113.31
2023-01-17T03:36:25.876Z,98120.00
2023-01-17T03:38:54.890Z,98122.75
2023-01-17T03:41:21.540Z,98123.59
2023-01-17T03:43:48.206Z,98138.63
2023-01-17T03:46:20.412Z,98139.28
2023-01-17T03:48:47.092Z,98125.69
2023-01-17T03:51:15.187Z,98145.47
2023-01-17T03:53:41.956Z,98120.09
2023-01-17T03:56:09.292Z,98115.16
2023-01-17T03:58:36.025Z,98104.75
2023-01-17T04:01:02.761Z,98100.50
2023-01-17T04:03:29.547Z,98113.88
2023-01-17T04:05:56.321Z,98122.16
2023-01-17T04:08:24.604Z,98141.16
2023-01-17T04:10:51.248Z,98124.00
2023-01-17T04:13:18.004Z,98131.84
2023-01-17T04:15:45.770Z,98109.28
2023-01-17T04:18:13.229Z,98123.69
2023-01-17T04:20:40.790Z,98131.94
2023-01-17T04:23:07.855Z,98147.38
2023-01-17T04:25:36.156Z,98138.19
2023-01-17T04:28:03.326Z,98159.50
2023-01-17T04:30:31.302Z,98170.13
2023-01-17T04:33:00.582Z,98165.63
2023-01-17T04:35:29.362Z,98159.44
2023-01-17T04:37:58.190Z,98173.97
2023-01-17T04:40:25.023Z,98167.38
2023-01-17T04:42:53.047Z,98169.56
2023-01-17T04:45:19.917Z,98149.84
2023-01-17T04:47:46.542Z,98153.66
2023-01-17T04:50:13.193Z,98145.38
2023-01-17T04:52:39.875Z,98162.53
2023-01-17T04:55:07.484Z,98173.88
2023-01-17T04:57:34.337Z,98154.91
2023-01-17T05:00:02.604Z,98147.66
2023-01-17T05:02:29.298Z,98182.88
2023-01-17T05:04:56.058Z,98190.50
2023-01-17T05:07:24.133Z,98172.91
2023-01-17T05:09:50.810Z,98160.38
2023-01-17T05:12:17.480Z,98157.97
2023-01-17T05:14:44.111Z,98194.09
2023-01-17T05:17:12.098Z,98191.13
2023-01-17T05:19:38.705Z,98207.47
2023-01-17T05:22:05.463Z,98198.34
2023-01-17T05:24:32.109Z,98200.06
2023-01-17T05:26:58.785Z,98200.16
2023-01-17T05:29:25.479Z,98201.69
2023-01-17T05:31:52.118Z,98205.63
2023-01-17T05:34:20.206Z,98221.19
2023-01-17T05:36:46.854Z,98234.34
2023-01-17T05:39:13.498Z,98233.84
2023-01-17T05:41:40.207Z,98231.75
2023-01-17T05:44:06.956Z,98219.63
2023-01-17T05:46:33.704Z,98218.47
2023-01-17T05:49:00.418Z,98224.50
2023-01-17T05:51:28.532Z,98222.03
2023-01-17T05:53:55.462Z,98220.50
2023-01-17T05:56:22.136Z,98247.31
2023-01-17T05:58:48.819Z,98231.97
2023-01-17T06:01:15.511Z,98242.63
2023-01-17T06:03:42.177Z,98245.66
2023-01-17T06:06:08.803Z,98252.91
2023-01-17T06:08:36.775Z,98256.34
2023-01-17T06:11:03.609Z,98270.09
2023-01-17T06:13:30.178Z,98275.63
2023-01-17T06:15:56.911Z,98278.84
2023-01-17T06:18:23.611Z,98271.22
2023-01-17T06:20:52.631Z,98278.56
2023-01-17T06:23:19.388Z,98279.91
2023-01-17T06:25:47.994Z,98265.31
2023-01-17T06:28:17.744Z,98285.25
2023-01-17T06:30:45.064Z,98294.50
2023-01-17T06:33:12.203Z,98290.97
2023-01-17T06:35:38.933Z,98284.06
2023-01-17T06:38:05.708Z,98284.28
2023-01-17T06:40:32.725Z,98281.91
2023-01-17T06:43:01.621Z,98272.28
2023-01-17T06:45:28.835Z,98266.66
2023-01-17T06:47:55.503Z,98273.81
2023-01-17T06:50:22.186Z,98294.13
2023-01-17T06:52:54.864Z,98276.25
2023-01-17T06:55:21.647Z,98278.91
2023-01-17T06:57:48.328Z,98292.19
2023-01-17T07:00:17.301Z,98282.47
2023-01-17T07:02:43.973Z,98280.97
2023-01-17T07:05:10.628Z,98288.44
2023-01-17T07:07:37.273Z,98283.91
2023-01-17T07:10:04.705Z,98299.63
2023-01-17T07:12:31.372Z,98299.53
2023-01-17T07:14:58.009Z,98294.00
2023-01-17T07:17:26.073Z,98284.47
2023-01-17T07:19:52.765Z,98305.06
2023-01-17T07:22:19.423Z,98312.22
2023-01-17T07:24:51.215Z,98315.97
2023-01-17T07:27:17.955Z,98305.06
2023-01-17T07:29:45.674Z,98308.81
2023-01-17T07:32:12.321Z,98310.16
2023-01-17T07:34:41.448Z,98303.41
2023-01-17T07:37:08.116Z,98286.19
2023-01-17T07:39:34.777Z,98297.16
2023-01-17T07:42:01.543Z,98299.44
2023-01-17T07:44:31.108Z,98315.19
2023-01-17T07:46:57.725Z,98313.69
2023-01-17T07:49:24.382Z,98290.75
2023-01-17T07:51:52.484Z,98323.22
2023-01-17T07:54:19.163Z,98322.72
2023-01-17T07:56:45.791Z,98330.06
2023-01-17T07:59:12.770Z,98295.88
2023-01-17T08:01:39.384Z,98304.50
2023-01-17T08:04:06.135Z,98305.16
2023-01-17T08:06:32.964Z,98324.44
2023-01-17T08:09:01.001Z,98322.91
2023-01-17T08:11:27.637Z,98310.91
2023-01-17T08:13:54.315Z,98312.19
2023-01-17T08:16:21.018Z,98299.72
2023-01-17T08:18:47.665Z,98285.75
2023-01-17T08:21:15.632Z,98298.50
2023-01-17T08:40:57.145Z,98300.00
2023-01-17T08:44:09.206Z,98291.78
2023-01-17T08:46:40.221Z,98281.34
2023-01-17T08:52:37.993Z,98280.31
2023-01-17T08:55:22.657Z,98277.66
2023-01-17T08:58:42.837Z,98269.88
2023-01-17T09:01:29.217Z,98258.72
2023-01-17T09:03:57.108Z,98268.63
2023-01-17T09:13:25.448Z,98231.94
2023-01-17T09:16:28.606Z,98259.00
